Time;durP1;ratioP1;P1;durP2;ratioP2;P2;SDS_P1;SDS_P2;PMS_P1;PMS_P2;Temp;Humidity;BMP_temperature;BMP_pressure;BME280_temperature;BME280_humidity;BME280_pressure;Samples;Min_cycle;Max_cycle;Signal;HPM_P1;HPM_P2
2022/01/21 00:00:13;;;;;;;10.40;0.97;;;3.00;98.80;;;;;;5092526;28;20028;-77
2022/01/21 00:02:39;;;;;;;14.17;2.50;;;3.00;98.70;;;;;;5092512;28;20039;-77
2022/01/21 00:05:06;;;;;;;12.83;1.90;;;3.00;98.70;;;;;;5091091;28;20020;-76
2022/01/21 00:07:32;;;;;;;14.60;1.80;;;3.00;98.70;;;;;;5091297;28;20042;-76
2022/01/21 00:09:58;;;;;;;8.40;1.10;;;2.90;98.70;;;;;;5090952;28;20143;-76
2022/01/21 00:12:24;;;;;;;9.23;1.00;;;3.00;98.80;;;;;;5092139;28;20028;-76
2022/01/21 00:14:50;;;;;;;10.93;1.10;;;2.90;98.80;;;;;;5075285;28;20449;-76
2022/01/21 00:17:18;;;;;;;6.57;1.10;;;2.80;98.70;;;;;;5092562;28;20119;-77
2022/01/21 00:19:47;;;;;;;10.13;1.03;;;2.80;98.70;;;;;;5075984;28;20090;-77
2022/01/21 00:30:26;;;;;;;8.95;1.20;;;2.70;98.60;;;;;;5092803;28;20495;-77
2022/01/21 00:32:51;;;;;;;11.57;1.40;;;2.60;98.60;;;;;;5093578;28;20110;-76
2022/01/21 00:35:19;;;;;;;9.47;0.80;;;2.60;98.60;;;;;;5093509;28;20095;-76
2022/01/21 00:37:45;;;;;;;7.80;1.90;;;2.50;98.70;;;;;;5092266;28;20032;-77
2022/01/21 00:40:15;;;;;;;8.00;0.97;;;2.60;98.70;;;;;;5092119;28;20024;-77
2022/01/21 00:45:14;;;;;;;9.80;1.27;;;2.50;98.80;;;;;;5093390;28;20077;-76
2022/01/21 00:47:40;;;;;;;7.80;1.20;;;2.50;98.80;;;;;;5091976;28;20099;-72
2022/01/21 00:50:07;;;;;;;15.23;1.30;;;2.60;98.80;;;;;;5093175;28;20020;-72
2022/01/21 00:52:32;;;;;;;8.13;0.87;;;2.50;98.80;;;;;;5092126;28;20047;-72
2022/01/21 00:54:58;;;;;;;7.60;1.10;;;2.60;98.80;;;;;;5092084;28;20035;-72
2022/01/21 00:57:23;;;;;;;11.33;1.00;;;2.60;98.90;;;;;;5091971;28;20048;-72
2022/01/21 00:59:49;;;;;;;10.80;1.20;;;2.60;98.90;;;;;;5091986;28;20024;-72
2022/01/21 01:02:15;;;;;;;8.97;1.13;;;2.50;98.90;;;;;;5075162;28;20115;-72
2022/01/21 01:04:41;;;;;;;13.37;1.70;;;2.50;98.90;;;;;;5091931;28;20032;-73
2022/01/21 01:07:07;;;;;;;12.60;1.63;;;2.50;99.00;;;;;;5093191;28;20472;-72
2022/01/21 01:09:33;;;;;;;14.33;1.57;;;2.50;99.00;;;;;;5093052;28;20035;-73
2022/01/21 01:20:03;;;;;;;10.15;1.77;;;2.40;99.50;;;;;;5092511;28;20097;-77
2022/01/21 01:27:50;;;;;;;13.67;1.70;;;2.40;99.60;;;;;;5097294;28;20567;-77
2022/01/21 01:30:20;;;;;;;11.37;1.50;;;2.50;99.70;;;;;;5096788;28;20044;-77
2022/01/21 01:32:48;;;;;;;9.63;1.60;;;2.50;99.70;;;;;;5095657;28;20111;-77
2022/01/21 01:35:17;;;;;;;12.67;1.57;;;2.50;99.60;;;;;;5095470;28;20020;-77
2022/01/21 01:38:19;;;;;;;16.13;1.50;;;2.40;99.50;;;;;;5096962;28;20107;-77
2022/01/21 01:40:44;;;;;;;18.73;1.87;;;2.50;99.50;;;;;;5096507;28;20476;-77
2022/01/21 01:50:55;;;;;;;9.67;1.80;;;2.40;99.20;;;;;;5096762;28;20032;-77
2022/01/21 01:53:28;;;;;;;9.37;1.20;;;2.30;99.20;;;;;;5096606;28;20016;-77
2022/01/21 01:55:54;;;;;;;10.67;1.47;;;2.30;99.10;;;;;;5096547;28;20027;-77
2022/01/21 01:58:20;;;;;;;12.83;1.60;;;2.30;99.20;;;;;;5095204;28;20024;-77
2022/01/21 02:00:46;;;;;;;19.13;1.63;;;2.30;99.20;;;;;;5096471;28;20032;-77
2022/01/21 02:03:14;;;;;;;14.47;1.37;;;2.30;99.20;;;;;;5078255;28;20028;-77
2022/01/21 02:05:41;;;;;;;15.87;2.10;;;2.30;99.20;;;;;;5095033;28;20020;-77
2022/01/21 02:08:07;;;;;;;9.03;1.20;;;2.30;99.30;;;;;;5096167;28;20032;-77
2022/01/21 02:10:34;;;;;;;16.57;1.90;;;2.30;99.30;;;;;;5078155;28;20492;-77
2022/01/21 02:13:05;;;;;;;20.70;1.93;;;2.30;99.40;;;;;;5094863;28;20028;-77
2022/01/21 02:15:35;;;;;;;10.83;1.80;;;2.40;99.50;;;;;;5095032;28;20385;-77
2022/01/21 02:23:29;;;;;;;14.60;2.38;;;2.50;99.60;;;;;;5096294;28;20063;-77
2022/01/21 02:25:54;;;;;;;11.90;1.33;;;2.50;99.60;;;;;;5096020;28;20472;-77
2022/01/21 02:28:20;;;;;;;10.93;1.60;;;2.50;99.60;;;;;;5095993;28;20032;-77
2022/01/21 02:30:54;;;;;;;11.87;1.20;;;2.60;99.60;;;;;;5095726;28;20043;-76
2022/01/21 02:33:19;;;;;;;18.80;2.92;;;2.50;99.50;;;;;;5095751;28;20058;-77
2022/01/21 02:35:45;;;;;;;22.43;1.70;;;2.50;99.50;;;;;;5076558;28;20051;-77
2022/01/21 02:38:11;;;;;;;12.07;1.57;;;2.50;99.50;;;;;;5094516;28;20024;-77
2022/01/21 02:40:36;;;;;;;15.07;2.03;;;2.50;99.40;;;;;;5094479;28;20033;-77
2022/01/21 02:43:02;;;;;;;16.00;2.20;;;2.40;99.30;;;;;;5095581;28;20029;-77
2022/01/21 02:45:29;;;;;;;8.53;1.07;;;2.40;99.30;;;;;;5094201;28;20028;-77
2022/01/21 02:47:54;;;;;;;9.80;2.10;;;2.40;99.30;;;;;;5077486;28;20028;-77
2022/01/21 02:50:20;;;;;;;11.47;2.40;;;2.40;99.30;;;;;;5077411;28;20035;-76
2022/01/21 02:55:32;;;;;;;8.33;1.27;;;2.30;99.30;;;;;;5095773;28;20035;-77
2022/01/21 02:57:57;;;;;;;12.20;1.23;;;2.20;99.20;;;;;;5083849;28;20035;-78
2022/01/21 03:00:23;;;;;;;9.13;0.93;;;2.20;99.20;;;;;;5111267;28;20115;-77
2022/01/21 03:02:49;;;;;;;14.93;1.97;;;2.20;99.20;;;;;;5109877;28;20031;-77
2022/01/21 03:05:16;;;;;;;7.77;0.97;;;2.10;99.20;;;;;;5097311;28;20539;-76
2022/01/21 03:07:42;;;;;;;8.37;1.23;;;2.10;99.20;;;;;;5097194;28;20032;-77
2022/01/21 03:10:08;;;;;;;15.70;1.23;;;2.10;99.30;;;;;;5115720;28;20463;-76
2022/01/21 03:12:34;;;;;;;12.40;1.70;;;2.10;99.30;;;;;;5115036;28;20450;-76
2022/01/21 03:14:59;;;;;;;9.90;1.03;;;2.00;99.40;;;;;;5116660;28;20499;-76
2022/01/21 03:17:25;;;;;;;10.80;2.27;;;2.00;99.50;;;;;;5115217;28;20460;-75
2022/01/21 03:19:50;;;;;;;9.93;1.10;;;2.00;99.50;;;;;;5097455;28;20043;-77
2022/01/21 03:22:16;;;;;;;8.00;1.30;;;2.00;99.50;;;;;;5114586;28;20056;-77
2022/01/21 03:24:42;;;;;;;9.23;1.57;;;2.00;99.60;;;;;;5097183;28;20475;-76
2022/01/21 03:27:07;;;;;;;9.33;1.33;;;1.90;99.50;;;;;;5114147;28;20514;-76
2022/01/21 03:29:33;;;;;;;10.03;1.10;;;1.90;99.40;;;;;;5115387;28;20395;-76
2022/01/21 03:31:59;;;;;;;6.33;1.00;;;1.90;99.40;;;;;;5115091;28;20387;-76
2022/01/21 03:34:24;;;;;;;8.97;1.00;;;1.90;99.40;;;;;;5115252;28;20024;-76
2022/01/21 03:36:50;;;;;;;8.97;1.00;;;1.90;99.30;;;;;;5114149;28;20024;-76
2022/01/21 03:39:16;;;;;;;6.13;0.90;;;1.80;99.30;;;;;;5113944;28;20536;-76
2022/01/21 03:41:42;;;;;;;9.67;0.90;;;1.80;99.50;;;;;;5115112;28;20023;-76
2022/01/21 03:44:08;;;;;;;8.27;1.00;;;1.80;99.30;;;;;;5115021;28;20055;-76
2022/01/21 03:46:34;;;;;;;9.03;1.20;;;1.80;99.30;;;;;;5114913;28;20032;-76
2022/01/21 03:49:02;;;;;;;7.60;1.20;;;1.80;99.30;;;;;;5079542;28;20028;-76
2022/01/21 03:51:28;;;;;;;10.07;1.10;;;1.70;99.30;;;;;;5113584;28;20031;-76
2022/01/21 03:53:54;;;;;;;6.10;0.90;;;1.70;99.30;;;;;;5114304;28;20031;-76
2022/01/21 03:56:20;;;;;;;10.50;1.40;;;1.80;99.40;;;;;;5114697;28;20414;-76
2022/01/21 03:58:45;;;;;;;12.00;1.10;;;1.70;99.30;;;;;;5114680;28;20023;-76
2022/01/21 04:01:12;;;;;;;17.57;1.40;;;1.70;99.40;;;;;;5113762;28;20055;-76
2022/01/21 04:03:37;;;;;;;10.90;0.80;;;1.70;99.40;;;;;;5096924;28;20023;-76
2022/01/21 04:06:03;;;;;;;8.93;1.00;;;1.70;99.40;;;;;;5113358;28;20038;-76
2022/01/21 04:08:29;;;;;;;12.27;1.20;;;1.70;99.40;;;;;;5113564;28;20430;-76
2022/01/21 04:10:55;;;;;;;15.43;1.63;;;1.70;99.50;;;;;;5113544;28;20038;-76
2022/01/21 04:13:23;;;;;;;7.80;1.43;;;1.60;99.60;;;;;;5112940;28;20031;-77
2022/01/21 04:15:51;;;;;;;11.23;1.40;;;1.60;99.60;;;;;;5114866;28;20027;-76
2022/01/21 04:18:18;;;;;;;8.23;1.50;;;1.60;99.70;;;;;;5113469;28;20027;-77
2022/01/21 04:20:46;;;;;;;11.23;2.20;;;1.60;99.70;;;;;;5114753;28;20038;-76
2022/01/21 04:23:12;;;;;;;17.73;1.57;;;1.60;99.90;;;;;;5114298;28;20031;-77
2022/01/21 04:25:39;;;;;;;5.87;1.00;;;1.60;99.90;;;;;;5112954;28;20024;-76
2022/01/21 04:28:05;;;;;;;10.53;1.07;;;1.60;99.90;;;;;;5114320;28;20479;-76
2022/01/21 04:30:31;;;;;;;10.23;1.30;;;1.60;99.90;;;;;;5112775;28;20430;-76
2022/01/21 04:32:57;;;;;;;11.77;1.40;;;1.60;99.90;;;;;;5114090;28;20016;-76
2022/01/21 04:35:23;;;;;;;17.73;1.67;;;1.70;99.90;;;;;;5113011;28;20084;-76
2022/01/21 04:37:55;;;;;;;10.93;1.20;;;1.60;99.90;;;;;;5112823;28;20098;-76
2022/01/21 04:40:24;;;;;;;18.90;1.97;;;1.60;99.90;;;;;;5112935;28;20463;-76
2022/01/21 04:48:18;;;;;;;9.73;1.35;;;1.70;99.90;;;;;;5115081;28;20034;-76
2022/01/21 04:50:59;;;;;;;12.13;1.20;;;1.80;99.90;;;;;;5113817;28;20107;-76
2022/01/21 04:53:28;;;;;;;14.40;1.73;;;1.70;99.90;;;;;;5114480;28;20084;-76
2022/01/21 04:55:55;;;;;;;14.30;2.07;;;1.80;99.90;;;;;;5114127;28;20112;-76
2022/01/21 04:58:20;;;;;;;10.03;0.93;;;1.80;99.90;;;;;;5095847;28;20088;-76
2022/01/21 05:00:46;;;;;;;18.37;1.93;;;1.80;99.90;;;;;;5120111;28;20031;-76
2022/01/21 05:03:13;;;;;;;7.03;1.13;;;1.80;99.90;;;;;;5102397;28;20020;-76
2022/01/21 05:05:40;;;;;;;8.33;0.73;;;1.80;99.90;;;;;;5102302;28;20028;-76
2022/01/21 05:08:09;;;;;;;9.83;1.17;;;1.80;99.90;;;;;;5119778;28;20031;-76
2022/01/21 05:10:36;;;;;;;9.90;1.23;;;1.80;99.90;;;;;;5120727;28;20027;-76
2022/01/21 05:13:03;;;;;;;11.47;1.17;;;1.80;99.90;;;;;;5120486;28;20027;-76
2022/01/21 05:18:30;;;;;;;9.40;0.97;;;1.70;99.90;;;;;;5037757;28;20034;-77
2022/01/21 05:20:56;;;;;;;11.23;1.10;;;1.80;99.90;;;;;;5103289;28;20472;-77
2022/01/21 05:23:23;;;;;;;11.43;1.30;;;1.80;99.90;;;;;;5120413;28;20475;-73
2022/01/21 05:25:49;;;;;;;14.77;1.30;;;1.80;99.90;;;;;;5120477;28;20027;-73
2022/01/21 05:28:15;;;;;;;12.27;1.13;;;1.80;99.90;;;;;;5102296;28;20019;-73
2022/01/21 05:30:40;;;;;;;11.17;1.30;;;1.80;99.90;;;;;;5118922;28;20035;-72
2022/01/21 05:33:06;;;;;;;10.03;1.20;;;1.80;99.90;;;;;;5102225;28;20349;-73
2022/01/21 05:35:32;;;;;;;8.97;1.43;;;1.80;99.90;;;;;;5101987;28;20380;-73
2022/01/21 05:37:57;;;;;;;7.10;0.83;;;1.80;99.90;;;;;;5120030;28;20092;-72
2022/01/21 05:40:24;;;;;;;7.83;1.27;;;1.80;99.90;;;;;;5082090;28;20091;-72
2022/01/21 05:42:50;;;;;;;6.77;1.03;;;1.80;99.90;;;;;;5101520;28;20023;-72
2022/01/21 05:48:00;;;;;;;11.60;1.10;;;1.90;99.90;;;;;;5118395;28;20102;-72
2022/01/21 05:50:26;;;;;;;4.50;0.50;;;1.90;99.90;;;;;;5118238;28;20466;-72
2022/01/21 05:52:52;;;;;;;9.17;1.10;;;1.80;99.90;;;;;;5119069;28;20020;-72
2022/01/21 05:55:18;;;;;;;12.00;1.23;;;1.90;99.90;;;;;;5120237;28;20494;-73
2022/01/21 05:57:44;;;;;;;10.33;1.30;;;1.90;99.90;;;;;;5119068;28;20366;-73
2022/01/21 06:00:11;;;;;;;8.53;0.90;;;1.90;99.90;;;;;;5120169;28;20024;-72
2022/01/21 06:02:38;;;;;;;9.53;1.10;;;1.90;99.90;;;;;;5118578;28;20038;-72
2022/01/21 06:05:04;;;;;;;10.50;1.40;;;1.80;99.90;;;;;;5118673;28;20155;-72
2022/01/21 06:07:31;;;;;;;12.00;1.00;;;1.90;99.90;;;;;;5120169;28;20035;-73
2022/01/21 06:09:56;;;;;;;13.10;1.20;;;1.80;99.90;;;;;;5119691;28;20047;-72
2022/01/21 06:12:22;;;;;;;7.13;1.07;;;1.80;99.90;;;;;;5097889;28;20708;-73
2022/01/21 06:14:48;;;;;;;9.37;0.80;;;1.80;99.90;;;;;;5116437;28;20039;-74
2022/01/21 06:17:14;;;;;;;6.27;1.03;;;1.90;99.90;;;;;;5116577;28;20039;-73
2022/01/21 06:19:40;;;;;;;13.80;1.10;;;1.90;99.90;;;;;;5115109;28;20383;-74
2022/01/21 06:22:07;;;;;;;10.57;1.00;;;1.90;99.90;;;;;;5115258;28;20495;-72
2022/01/21 06:24:32;;;;;;;10.60;1.63;;;1.90;99.90;;;;;;5112164;28;20066;-76
2022/01/21 06:27:03;;;;;;;9.33;1.40;;;1.90;99.90;;;;;;5114989;28;20051;-77
2022/01/21 06:29:29;;;;;;;10.13;1.03;;;1.80;99.90;;;;;;5091904;28;20111;-73
2022/01/21 06:31:55;;;;;;;11.47;1.10;;;1.90;99.90;;;;;;5095905;28;20023;-73
2022/01/21 06:34:20;;;;;;;11.83;1.20;;;2.00;99.90;;;;;;5080217;28;20104;-76
2022/01/21 06:36:46;;;;;;;10.53;1.00;;;1.90;99.90;;;;;;5116364;28;20136;-76
2022/01/21 06:39:12;;;;;;;12.60;1.20;;;1.90;99.90;;;;;;5114503;28;20032;-77
2022/01/21 06:41:37;;;;;;;5.73;0.80;;;1.90;99.90;;;;;;5097847;28;20030;-76
2022/01/21 06:44:04;;;;;;;10.53;1.50;;;1.90;99.90;;;;;;5116211;28;20035;-76
2022/01/21 06:46:30;;;;;;;7.80;1.63;;;2.00;99.90;;;;;;5116426;28;20084;-73
2022/01/21 06:48:55;;;;;;;11.20;1.23;;;2.00;99.90;;;;;;5114941;28;20023;-72
2022/01/21 06:51:21;;;;;;;3.63;0.70;;;2.00;99.90;;;;;;5114943;28;20026;-72
2022/01/21 06:53:47;;;;;;;20.33;1.70;;;2.00;99.90;;;;;;5115909;28;20023;-73
2022/01/21 06:56:13;;;;;;;6.00;0.97;;;2.00;99.90;;;;;;5115120;28;20149;-73
2022/01/21 06:58:38;;;;;;;8.87;1.10;;;2.00;99.90;;;;;;5114367;28;20038;-73
2022/01/21 07:01:04;;;;;;;10.17;1.67;;;2.00;99.90;;;;;;5097300;28;20028;-73
2022/01/21 07:03:30;;;;;;;11.83;1.10;;;2.00;99.90;;;;;;5089453;28;20464;-73
2022/01/21 07:05:56;;;;;;;14.87;1.40;;;2.00;99.90;;;;;;5113979;28;20023;-73
2022/01/21 07:08:22;;;;;;;10.77;1.47;;;2.10;99.90;;;;;;5115412;28;20028;-73
2022/01/21 07:10:48;;;;;;;10.37;0.90;;;2.10;99.90;;;;;;5114866;28;20031;-73
2022/01/21 07:13:14;;;;;;;5.97;0.90;;;2.20;99.90;;;;;;5096517;28;20020;-74
2022/01/21 07:15:39;;;;;;;11.20;1.17;;;2.20;99.90;;;;;;5113257;28;20480;-74
2022/01/21 07:18:05;;;;;;;6.87;1.03;;;2.30;99.90;;;;;;5115149;28;20020;-75
2022/01/21 07:20:31;;;;;;;8.73;1.00;;;2.30;99.90;;;;;;5096714;28;20023;-74
2022/01/21 07:22:56;;;;;;;12.10;1.50;;;2.40;99.90;;;;;;5113552;28;20028;-75
2022/01/21 07:25:22;;;;;;;9.80;2.07;;;2.40;99.90;;;;;;5105096;28;20023;-75
2022/01/21 07:27:48;;;;;;;9.07;1.57;;;2.40;99.90;;;;;;5113530;28;20028;-74
2022/01/21 07:30:14;;;;;;;11.37;1.63;;;2.50;99.90;;;;;;5114787;28;20332;-74
2022/01/21 07:32:41;;;;;;;11.70;1.87;;;2.50;99.90;;;;;;5080040;28;20470;-74
2022/01/21 07:35:09;;;;;;;8.17;1.20;;;2.50;99.90;;;;;;5115234;28;20068;-74
2022/01/21 07:37:36;;;;;;;14.30;1.30;;;2.60;99.90;;;;;;5096969;28;20054;-74
2022/01/21 07:40:03;;;;;;;7.10;1.20;;;2.60;99.90;;;;;;5113628;28;20027;-74
2022/01/21 07:42:29;;;;;;;15.07;2.17;;;2.60;99.90;;;;;;5096855;28;20034;-74
2022/01/21 07:44:56;;;;;;;9.63;1.37;;;2.70;99.90;;;;;;5115224;28;20456;-74
2022/01/21 07:47:21;;;;;;;8.70;1.73;;;2.70;99.90;;;;;;5113373;28;20080;-74
2022/01/21 07:49:49;;;;;;;6.60;1.53;;;2.70;99.90;;;;;;5114819;28;20384;-74
2022/01/21 07:52:15;;;;;;;8.33;1.33;;;2.70;99.90;;;;;;5113672;28;20119;-78
2022/01/21 07:54:41;;;;;;;10.10;1.47;;;2.80;99.90;;;;;;5096431;28;20027;-78
2022/01/21 07:57:07;;;;;;;7.70;1.07;;;2.80;99.90;;;;;;5113483;28;20030;-78
2022/01/21 07:59:32;;;;;;;10.20;1.10;;;2.80;99.90;;;;;;5114831;28;20029;-77
2022/01/21 08:01:58;;;;;;;18.50;1.57;;;2.80;99.90;;;;;;5114523;28;20040;-77
2022/01/21 08:04:24;;;;;;;10.67;1.50;;;2.80;99.90;;;;;;5113112;28;20480;-77
2022/01/21 08:06:50;;;;;;;7.00;1.00;;;2.80;99.90;;;;;;5114330;28;20391;-77
2022/01/21 08:09:16;;;;;;;9.90;1.37;;;2.80;99.90;;;;;;5113105;28;20040;-75
2022/01/21 08:11:42;;;;;;;11.63;1.70;;;2.80;99.90;;;;;;5112933;28;20036;-75
2022/01/21 08:14:08;;;;;;;12.50;1.70;;;2.80;99.90;;;;;;5112919;28;20074;-75
2022/01/21 08:16:35;;;;;;;10.97;2.00;;;2.80;99.90;;;;;;5113363;28;20468;-75
2022/01/21 08:19:03;;;;;;;14.80;1.87;;;2.80;99.90;;;;;;5113990;28;20461;-75
2022/01/21 08:21:29;;;;;;;7.80;1.33;;;2.70;99.90;;;;;;5114467;28;20460;-77
2022/01/21 08:23:55;;;;;;;10.00;2.10;;;2.80;99.90;;;;;;5114302;28;20042;-77
2022/01/21 08:26:24;;;;;;;8.90;1.80;;;2.70;99.90;;;;;;5092594;28;20499;-77
2022/01/21 08:28:51;;;;;;;9.50;1.50;;;2.70;99.90;;;;;;5112441;28;20096;-77
2022/01/21 08:31:17;;;;;;;7.23;2.20;;;2.70;99.90;;;;;;5093411;28;20070;-77
2022/01/21 08:33:43;;;;;;;6.93;1.83;;;2.70;99.90;;;;;;5113483;28;20027;-77
2022/01/21 08:36:08;;;;;;;9.80;2.90;;;2.70;99.90;;;;;;5113832;28;20020;-77
2022/01/21 08:38:35;;;;;;;7.70;1.67;;;2.70;99.90;;;;;;5095682;28;20460;-78
2022/01/21 08:41:01;;;;;;;13.17;1.93;;;2.80;99.90;;;;;;5112913;28;20102;-77
2022/01/21 08:43:26;;;;;;;5.73;1.90;;;2.80;99.90;;;;;;5113997;28;20490;-77
2022/01/21 08:45:52;;;;;;;7.73;1.73;;;2.80;99.90;;;;;;5095647;28;20066;-77
2022/01/21 08:48:18;;;;;;;10.83;1.93;;;2.80;99.90;;;;;;5095650;28;20035;-77
2022/01/21 08:50:44;;;;;;;11.47;1.80;;;2.80;99.90;;;;;;5112609;28;20106;-77
2022/01/21 08:53:36;;;;;;;7.67;1.50;;;2.90;99.90;;;;;;5096191;28;20034;-77
2022/01/21 08:55:56;;;;;;;12.73;2.13;;;2.80;99.90;;;;;;5113572;28;20035;-78
2022/01/21 08:58:22;;;;;;;6.57;1.67;;;2.90;99.90;;;;;;5113807;28;20020;-78
2022/01/21 09:00:47;;;;;;;10.87;1.77;;;2.90;99.90;;;;;;5113801;28;20495;-78
2022/01/21 09:03:13;;;;;;;12.27;2.37;;;2.90;99.90;;;;;;5113747;28;20039;-78
2022/01/21 09:05:38;;;;;;;9.40;2.40;;;2.90;99.90;;;;;;5095444;28;20031;-75
2022/01/21 09:08:04;;;;;;;14.73;2.93;;;3.00;99.90;;;;;;5095791;28;20505;-77
2022/01/21 09:10:30;;;;;;;9.70;2.23;;;3.00;99.90;;;;;;5113539;28;20395;-77
2022/01/21 09:12:56;;;;;;;7.80;2.40;;;3.00;99.90;;;;;;5112631;28;20031;-75
2022/01/21 09:15:25;;;;;;;11.70;2.50;;;3.00;99.90;;;;;;5113305;28;20519;-75
2022/01/21 09:17:52;;;;;;;6.93;1.87;;;3.10;99.90;;;;;;5113551;28;20024;-77
2022/01/21 09:20:17;;;;;;;10.40;2.30;;;3.20;99.90;;;;;;5113548;28;20144;-77
2022/01/21 09:22:43;;;;;;;14.13;2.73;;;3.30;99.90;;;;;;5113351;28;20372;-75
2022/01/21 09:25:09;;;;;;;9.10;2.13;;;3.40;99.90;;;;;;5103631;28;20067;-75
2022/01/21 09:27:36;;;;;;;9.63;1.80;;;3.50;99.90;;;;;;5112228;28;20032;-77
2022/01/21 09:30:05;;;;;;;14.07;2.93;;;3.60;99.90;;;;;;5112177;28;20027;-77
2022/01/21 09:32:32;;;;;;;10.90;2.40;;;3.60;99.90;;;;;;5112573;28;20027;-78
2022/01/21 09:34:58;;;;;;;11.80;2.97;;;3.70;99.90;;;;;;5112342;28;20055;-77
2022/01/21 09:37:24;;;;;;;17.27;4.67;;;3.80;99.90;;;;;;5112340;28;20035;-77
2022/01/21 09:39:50;;;;;;;9.63;2.97;;;3.80;99.90;;;;;;5095073;28;20156;-76
2022/01/21 09:42:16;;;;;;;8.87;3.23;;;3.80;99.90;;;;;;5095208;28;20475;-76
2022/01/21 09:44:45;;;;;;;15.00;3.30;;;3.80;99.90;;;;;;5113178;28;20032;-76
2022/01/21 09:47:15;;;;;;;10.97;3.10;;;3.90;99.90;;;;;;5098934;28;20032;-76
2022/01/21 09:49:43;;;;;;;15.07;4.03;;;3.90;99.90;;;;;;5079574;28;20043;-76
2022/01/21 09:52:11;;;;;;;11.60;2.57;;;4.10;99.90;;;;;;5095399;28;20085;-76
2022/01/21 09:54:38;;;;;;;7.80;2.73;;;4.40;99.90;;;;;;5096565;28;20039;-76
2022/01/21 09:57:07;;;;;;;8.30;2.07;;;4.80;99.90;;;;;;5096459;28;20107;-76
2022/01/21 09:59:36;;;;;;;7.03;1.90;;;5.20;99.90;;;;;;5096370;28;20016;-77
2022/01/21 10:02:07;;;;;;;11.87;2.70;;;5.70;99.90;;;;;;5096144;28;20421;-77
2022/01/21 10:04:41;;;;;;;13.33;1.90;;;6.30;99.90;;;;;;5096553;28;20024;-77
2022/01/21 10:07:13;;;;;;;12.77;2.50;;;6.80;99.90;;;;;;5095028;28;20078;-77
2022/01/21 10:09:41;;;;;;;9.53;2.50;;;7.40;99.90;;;;;;5108191;28;20077;-77
2022/01/21 10:12:08;;;;;;;10.85;1.27;;;8.10;99.90;;;;;;5116642;28;20118;-77
2022/01/21 10:14:33;;;;;;;6.78;1.63;;;8.70;99.90;;;;;;5081490;28;20054;-77
2022/01/21 10:17:00;;;;;;;6.07;1.17;;;9.30;99.90;;;;;;5115494;28;20547;-77
2022/01/21 10:19:35;;;;;;;9.95;1.00;;;9.70;99.90;;;;;;5098573;28;20379;-77
2022/01/21 10:22:04;;;;;;;7.22;1.65;;;10.00;99.90;;;;;;5115068;28;20032;-77
2022/01/21 10:24:33;;;;;;;5.50;1.33;;;10.30;99.10;;;;;;5115378;28;20077;-77
2022/01/21 10:26:59;;;;;;;7.63;1.08;;;10.30;97.30;;;;;;5116219;28;20020;-77
2022/01/21 10:29:35;;;;;;;7.88;1.50;;;10.30;96.80;;;;;;5115122;28;20036;-76
2022/01/21 10:32:01;;;;;;;6.55;1.35;;;10.20;95.50;;;;;;5114649;28;20030;-77
2022/01/21 10:34:43;;;;;;;8.60;1.33;;;10.10;95.20;;;;;;5116270;28;20024;-77
2022/01/21 10:37:30;;;;;;;7.65;1.73;;;10.10;94.30;;;;;;5118984;28;20027;-76
2022/01/21 10:40:02;;;;;;;10.35;1.60;;;9.80;92.20;;;;;;5115745;28;20479;-77
2022/01/21 10:42:29;;;;;;;4.75;1.23;;;9.60;91.00;;;;;;5116222;28;20127;-77
2022/01/21 10:44:54;;;;;;;6.40;1.42;;;9.40;90.90;;;;;;5116307;28;20483;-75
2022/01/21 10:47:30;;;;;;;9.00;1.23;;;9.20;90.40;;;;;;5117694;28;20099;-75
2022/01/21 10:50:11;;;;;;;12.07;1.87;;;8.90;90.30;;;;;;5115711;28;20020;-74
2022/01/21 10:52:38;;;;;;;9.57;1.80;;;8.80;90.50;;;;;;5115873;28;20047;-73
2022/01/21 10:55:24;;;;;;;10.10;1.90;;;8.60;90.50;;;;;;5114323;28;20498;-73
2022/01/21 10:58:03;;;;;;;7.00;1.60;;;8.50;91.00;;;;;;5114458;28;20073;-73
2022/01/21 11:00:29;;;;;;;7.43;1.40;;;8.50;91.40;;;;;;5114288;28;20063;-77
2022/01/21 11:02:54;;;;;;;12.10;2.37;;;8.40;91.20;;;;;;5115624;28;20032;-73
2022/01/21 11:05:20;;;;;;;8.97;1.70;;;8.30;91.30;;;;;;5098094;28;20027;-73
2022/01/21 11:08:02;;;;;;;8.53;2.13;;;8.20;91.20;;;;;;5115256;28;20027;-73
2022/01/21 11:10:28;;;;;;;11.07;1.73;;;8.20;91.60;;;;;;5113693;28;20505;-73
2022/01/21 11:12:53;;;;;;;7.77;1.63;;;8.20;91.80;;;;;;5114095;28;20027;-73
2022/01/21 11:15:19;;;;;;;9.90;1.77;;;8.20;91.70;;;;;;5114134;28;20488;-77
2022/01/21 11:18:00;;;;;;;11.93;2.43;;;8.20;92.10;;;;;;5097244;28;20028;-73
2022/01/21 11:20:48;;;;;;;8.77;1.53;;;8.20;91.90;;;;;;5114051;28;20020;-77
2022/01/21 11:23:14;;;;;;;12.77;2.33;;;8.20;91.90;;;;;;5114020;28;20582;-77
2022/01/21 11:25:57;;;;;;;8.30;2.00;;;8.20;91.80;;;;;;5114250;28;20024;-74
2022/01/21 11:28:35;;;;;;;11.43;2.13;;;8.10;91.80;;;;;;5115144;28;20027;-74
2022/01/21 11:31:01;;;;;;;12.67;2.30;;;8.10;91.90;;;;;;5113267;28;20430;-74
2022/01/21 11:33:26;;;;;;;19.43;2.53;;;8.00;92.00;;;;;;5115056;28;20051;-76
2022/01/21 11:35:52;;;;;;;12.17;3.17;;;7.90;92.20;;;;;;5096845;28;20119;-76
2022/01/21 11:38:22;;;;;;;18.63;1.90;;;7.90;92.30;;;;;;5114749;28;20118;-74
2022/01/21 11:40:49;;;;;;;13.83;2.13;;;8.00;92.50;;;;;;5113743;28;20016;-74
2022/01/21 11:43:17;;;;;;;11.60;1.57;;;7.90;92.50;;;;;;5112827;28;20110;-74
2022/01/21 11:50:54;;;;;;;13.27;1.13;;;7.70;93.00;;;;;;5114706;28;20032;-78
2022/01/21 11:53:58;;;;;;;14.80;1.60;;;7.70;93.20;;;;;;5113868;28;20034;-77
2022/01/21 11:56:32;;;;;;;16.67;2.40;;;7.60;93.30;;;;;;5113269;28;20019;-76
2022/01/21 11:59:03;;;;;;;;;;;7.60;93.50;;;;;;5114054;28;20547;-77
2022/01/21 12:01:47;;;;;;;16.17;1.80;;;7.50;93.70;;;;;;5113573;28;19911;-77
2022/01/21 12:04:15;;;;;;;11.68;1.63;;;7.50;93.80;;;;;;5114787;28;20019;-74
2022/01/21 12:06:41;;;;;;;11.53;1.63;;;7.40;94.10;;;;;;5113275;28;20031;-74
2022/01/21 12:09:09;;;;;;;11.87;1.50;;;7.40;94.20;;;;;;5114262;28;20475;-77
2022/01/21 12:11:37;;;;;;;15.37;2.03;;;7.50;94.40;;;;;;5114631;28;20331;-77
2022/01/21 12:14:32;;;;;;;10.23;1.80;;;7.50;94.40;;;;;;5096554;28;20048;-74
2022/01/21 12:17:12;;;;;;;17.97;2.37;;;7.50;94.50;;;;;;5113366;28;20031;-74
2022/01/21 12:19:40;;;;;;;16.03;1.90;;;7.50;94.50;;;;;;5113568;28;20020;-74
2022/01/21 12:22:17;;;;;;;11.23;1.73;;;7.50;94.90;;;;;;5113187;28;20122;-74
2022/01/21 12:25:05;;;;;;;13.17;2.00;;;7.40;94.70;;;;;;5113260;28;20058;-77
2022/01/21 12:27:31;;;;;;;13.47;2.23;;;7.40;94.90;;;;;;5114257;28;20095;-77
2022/01/21 12:30:31;;;;;;;11.90;1.47;;;7.50;95.00;;;;;;5113224;28;20035;-78
2022/01/21 12:33:07;;;;;;;15.63;2.57;;;7.50;95.20;;;;;;5096240;28;20046;-77
2022/01/21 12:35:33;;;;;;;15.37;2.50;;;7.50;95.30;;;;;;5112745;28;20027;-76
2022/01/21 12:39:15;;;;;;;9.07;1.80;;;7.50;95.30;;;;;;5113972;28;20028;-77
2022/01/21 12:41:15;;;;;;;10.27;1.43;;;7.50;95.40;;;;;;5104696;28;20032;-77
2022/01/21 12:43:50;;;;;;;10.13;2.00;;;7.50;95.40;;;;;;5113798;28;20468;-77
2022/01/21 12:46:30;;;;;;;13.50;2.03;;;7.50;95.50;;;;;;5113766;28;20094;-77
2022/01/21 12:48:56;;;;;;;13.00;1.50;;;7.60;95.50;;;;;;5113778;28;20032;-77
2022/01/21 12:56:59;;;;;;;10.23;1.57;;;7.50;95.70;;;;;;5114053;28;20047;-77
2022/01/21 12:59:26;;;;;;;15.10;1.50;;;7.60;95.80;;;;;;5113699;28;20475;-76
2022/01/21 13:01:53;;;;;;;14.73;2.30;;;7.60;95.90;;;;;;5112190;28;20035;-77
2022/01/21 13:05:03;;;;;;;18.20;1.70;;;7.60;95.90;;;;;;5113553;28;20026;-77
2022/01/21 13:07:57;;;;;;;18.50;2.93;;;7.60;95.90;;;;;;5081283;28;20028;-77
2022/01/21 13:10:26;;;;;;;13.33;2.00;;;7.70;95.90;;;;;;5113522;28;20472;-77
2022/01/21 13:15:56;;;;;;;11.57;1.80;;;7.60;96.00;;;;;;5112084;28;20075;-77
2022/01/21 13:18:29;;;;;;;12.67;2.00;;;7.60;96.00;;;;;;5091924;28;20081;-77
2022/01/21 13:20:57;;;;;;;13.67;2.00;;;7.60;96.00;;;;;;5112929;28;20038;-77
2022/01/21 13:23:47;;;;;;;16.30;2.20;;;7.60;96.10;;;;;;5116356;28;20031;-77
2022/01/21 13:26:17;;;;;;;13.20;2.60;;;7.70;96.10;;;;;;5116331;28;20019;-77
2022/01/21 13:29:00;;;;;;;9.30;1.60;;;7.60;96.00;;;;;;5117683;28;20024;-77
2022/01/21 13:31:27;;;;;;;10.48;2.15;;;7.60;96.00;;;;;;5117356;28;20103;-77
2022/01/21 13:34:10;;;;;;;15.47;2.03;;;7.60;96.00;;;;;;5099244;28;20031;-73
2022/01/21 13:36:40;;;;;;;12.30;1.93;;;7.60;96.10;;;;;;5116021;28;20080;-74
2022/01/21 13:39:11;;;;;;;15.47;2.10;;;7.70;96.10;;;;;;5117392;28;20038;-74
2022/01/21 13:42:01;;;;;;;13.03;1.50;;;7.70;95.80;;;;;;5116164;28;20023;-74
2022/01/21 13:44:38;;;;;;;18.30;1.90;;;7.70;95.80;;;;;;5117001;28;20107;-74
2022/01/21 13:47:07;;;;;;;10.63;1.20;;;7.70;95.70;;;;;;5117121;28;20027;-76
2022/01/21 13:49:33;;;;;;;12.13;1.80;;;7.70;95.50;;;;;;5115748;28;20032;-74
2022/01/21 13:52:03;;;;;;;13.93;2.07;;;7.60;95.50;;;;;;5115601;28;20093;-74
2022/01/21 13:54:42;;;;;;;10.97;2.30;;;7.70;95.40;;;;;;5116083;28;20024;-74
2022/01/21 13:57:08;;;;;;;8.80;1.27;;;7.70;95.70;;;;;;5115543;28;20016;-74
2022/01/21 13:59:41;;;;;;;15.03;2.03;;;7.70;95.40;;;;;;5115007;28;20047;-74
2022/01/21 14:02:16;;;;;;;13.30;1.53;;;7.60;95.40;;;;;;5112891;28;20160;-78